Check out our new BloomSky Weather System.

Active alerts


No alerts


Thunder radar  blitzortung!


Rain radar more information rain snow radar


Visit our other weather sites:

Template documentation
and downloads

And another site



Weather Underground History page Text

Daily Summary for January 30, 2017 Units:  Metric    English   Both
« Previous Day
Next Day »
Daily Weekly Monthly Yearly Custom
  High: Low: Average:
Temperature: -17.8 °C 5.4 °C 15.3 °C
Dew Point: -17.8 °C 0.3 °C 3.1 °C
Humidity: Humidity % 20 % 50 %
Wind Speed: 0 km/h 0 km/h 2.9 km/h
Wind Gust: 0 km/h - -
Wind:- - SSW
Pressure: 0 hPa 1019.5 hPa -
Precipitation: 0 mm    
Historical Graphs
 
 
Tabular Data for January 30, 2017
Time Temperature Dew Point Pressure Wind Wind Speed Wind Gust Humidity Rainfall Rate (Hourly)
-17.8 °C -17.8 °C 0 hPa Calm     Humidity % 0 mm
00:04 7.6 °C 3.6 °C 1024.3 hPa Calm   1.6 km/h 76 % 0 mm
00:09 7.5 °C 3.4 °C 1024.3 hPa Calm     75 % 0 mm
00:14 7.3 °C 3.2 °C 1024.3 hPa Calm     75 % 0 mm
00:19 7.1 °C 3 °C 1024.3 hPa Calm     75 % 0 mm
00:24 6.9 °C 3 °C 1023.9 hPa Calm     76 % 0 mm
00:29 6.7 °C 2.8 °C 1023.9 hPa Calm     76 % 0 mm
00:34 6.5 °C 2.6 °C 1023.9 hPa Calm     76 % 0 mm
00:39 6.4 °C 2.7 °C 1023.9 hPa Calm     77 % 0 mm
00:44 6.2 °C 2.6 °C 1023.9 hPa Calm     78 % 0 mm
00:49 6.2 °C 3 °C 1023.9 hPa Calm     80 % 0 mm
00:54 6.4 °C 3 °C 1023.9 hPa Calm     79 % 0 mm
00:59 6.3 °C 2.9 °C 1023.9 hPa Calm     79 % 0 mm
01:05 6.2 °C 2.6 °C 1023.6 hPa Calm     78 % 0 mm
01:10 5.9 °C 2.5 °C 1023.6 hPa Calm     79 % 0 mm
01:15 5.8 °C 2.4 °C 1023.6 hPa Calm     79 % 0 mm
01:20 5.8 °C 2.8 °C 1023.6 hPa Calm     81 % 0 mm
01:25 6 °C 3.3 °C 1023.6 hPa Calm     83 % 0 mm
01:30 6.3 °C 3.5 °C 1023.6 hPa Calm     82 % 0 mm
01:35 6.6 °C 3.6 °C 1023.6 hPa Calm     81 % 0 mm
01:40 6.7 °C 3.5 °C 1023.6 hPa Calm     80 % 0 mm
01:45 6.7 °C 3.3 °C 1023.6 hPa Calm     79 % 0 mm
01:51 6.7 °C 3.1 °C 1023.6 hPa Calm     78 % 0 mm
01:56 6.5 °C 3.1 °C 1023.2 hPa Calm     79 % 0 mm
02:01 6.4 °C 2.8 °C 1023.2 hPa Calm     78 % 0 mm
02:06 6.3 °C 2.9 °C 1023.2 hPa Calm     79 % 0 mm
02:11 6.6 °C 3.2 °C 1023.2 hPa Calm     79 % 0 mm
02:16 6.8 °C 3.1 °C 1023.2 hPa Calm     77 % 0 mm
02:21 6.8 °C 3.1 °C 1023.2 hPa Calm     77 % 0 mm
02:26 6.8 °C 2.9 °C 1022.9 hPa Calm     76 % 0 mm
02:31 6.7 °C 2.8 °C 1022.9 hPa Calm     76 % 0 mm
02:36 6.8 °C 2.9 °C 1022.9 hPa Calm     76 % 0 mm
02:41 6.8 °C 2.7 °C 1022.9 hPa Calm     75 % 0 mm
02:46 6.6 °C 2.5 °C 1022.6 hPa Calm     75 % 0 mm
02:51 6.3 °C 2.2 °C 1022.6 hPa Calm     75 % 0 mm
02:56 6.1 °C 2 °C 1022.6 hPa Calm     75 % 0 mm
03:01 5.8 °C 2.1 °C 1022.6 hPa Calm     77 % 0 mm
03:06 5.6 °C 2.2 °C 1022.6 hPa Calm     79 % 0 mm
03:11 5.5 °C 2.3 °C 1022.6 hPa Calm     80 % 0 mm
03:16 5.5 °C 2.7 °C 1022.6 hPa Calm     82 % 0 mm
03:21 5.4 °C 2.6 °C 1022.6 hPa Calm     82 % 0 mm
03:26 5.6 °C 2.9 °C 1022.6 hPa Calm   1.6 km/h 83 % 0 mm
03:31 5.8 °C 3 °C 1022.6 hPa Calm   1.6 km/h 82 % 0 mm
03:36 5.7 °C 2.7 °C 1022.6 hPa Calm   1.6 km/h 81 % 0 mm
03:41 5.7 °C 2.9 °C 1022.6 hPa Calm   1.6 km/h 82 % 0 mm
03:46 5.8 °C 3 °C 1022.6 hPa Calm   1.6 km/h 82 % 0 mm
03:51 5.9 °C 2.9 °C 1022.6 hPa Calm   1.6 km/h 81 % 0 mm
03:56 5.8 °C 2.8 °C 1022.6 hPa Calm     81 % 0 mm
04:01 5.8 °C 2.8 °C 1022.6 hPa Calm     81 % 0 mm
04:06 6 °C 3 °C 1022.6 hPa Calm     81 % 0 mm
04:11 6.2 °C 3 °C 1022.6 hPa Calm   1.6 km/h 80 % 0 mm
04:16 6.2 °C 2.8 °C 1022.6 hPa Calm   1.6 km/h 79 % 0 mm
04:21 6.1 °C 2.7 °C 1022.6 hPa Calm   1.6 km/h 79 % 0 mm
04:26 5.9 °C 2.4 °C 1022.6 hPa Calm     78 % 0 mm
04:31 5.8 °C 2.4 °C 1022.6 hPa Calm   1.6 km/h 79 % 0 mm
04:36 5.9 °C 2.9 °C 1022.6 hPa Calm   1.6 km/h 81 % 0 mm
04:41 6 °C 3 °C 1022.6 hPa Calm   1.6 km/h 81 % 0 mm
04:47 5.9 °C 2.7 °C 1022.6 hPa Calm   1.6 km/h 80 % 0 mm
04:52 5.9 °C 2.7 °C 1022.9 hPa Calm   1.6 km/h 80 % 0 mm
04:57 6.1 °C 2.9 °C 1022.9 hPa Calm   1.6 km/h 80 % 0 mm
05:02 6.3 °C 2.9 °C 1022.9 hPa Calm   3.2 km/h 79 % 0 mm
05:06 6.6 °C 2.9 °C 1022.6 hPa Calm   3.2 km/h 77 % 0 mm
05:11 6.9 °C 2.8 °C 1022.9 hPa Calm   3.2 km/h 75 % 0 mm
05:16 7.1 °C 2.8 °C 1022.9 hPa Calm   3.2 km/h 74 % 0 mm
05:21 7.1 °C 2.8 °C 1022.9 hPa Calm   1.6 km/h 74 % 0 mm
05:26 7.2 °C 2.7 °C 1022.9 hPa Calm   1.6 km/h 73 % 0 mm
05:31 7.3 °C 2.6 °C 1022.9 hPa Calm   1.6 km/h 72 % 0 mm
05:36 7.3 °C 2.6 °C 1022.9 hPa Calm   1.6 km/h 72 % 0 mm
05:41 7.2 °C 2.5 °C 1022.9 hPa Calm   1.6 km/h 72 % 0 mm
05:47 7.1 °C 2.4 °C 1022.9 hPa Calm   1.6 km/h 72 % 0 mm
05:52 7.1 °C 2.6 °C 1022.9 hPa Calm   1.6 km/h 73 % 0 mm
05:57 7.1 °C 2.6 °C 1022.9 hPa Calm   1.6 km/h 73 % 0 mm
06:02 7 °C 2.5 °C 1022.9 hPa Calm   1.6 km/h 73 % 0 mm
06:07 6.9 °C 2.4 °C 1022.9 hPa Calm   1.6 km/h 73 % 0 mm
06:12 6.8 °C 2.3 °C 1023.2 hPa Calm   1.6 km/h 73 % 0 mm
06:17 6.6 °C 2.1 °C 1022.9 hPa Calm     73 % 0 mm
06:22 6.6 °C 2.5 °C 1023.2 hPa Calm     75 % 0 mm
06:27 6.8 °C 2.7 °C 1023.2 hPa Calm     75 % 0 mm
06:32 6.8 °C 2.5 °C 1023.2 hPa Calm   1.6 km/h 74 % 0 mm
06:37 6.8 °C 2.5 °C 1023.2 hPa Calm   1.6 km/h 74 % 0 mm
06:42 6.8 °C 2.5 °C 1023.2 hPa Calm   1.6 km/h 74 % 0 mm
06:47 6.8 °C 2.5 °C 1023.2 hPa Calm   1.6 km/h 74 % 0 mm
06:52 6.7 °C 2.4 °C 1023.2 hPa Calm   1.6 km/h 74 % 0 mm
06:57 6.7 °C 2.6 °C 1023.2 hPa Calm   1.6 km/h 75 % 0 mm
07:02 6.6 °C 2.5 °C 1023.2 hPa Calm   1.6 km/h 75 % 0 mm
07:06 6.6 °C 2.5 °C 1023.2 hPa Calm   1.6 km/h 75 % 0 mm
07:11 6.4 °C 2.5 °C 1023.6 hPa Calm     76 % 0 mm
07:17 6.3 °C 2.4 °C 1023.6 hPa Calm     76 % 0 mm
07:22 6.1 °C 2.2 °C 1023.6 hPa Calm     76 % 0 mm
07:27 5.8 °C 2.1 °C 1023.6 hPa Calm     77 % 0 mm
07:32 5.7 °C 2 °C 1023.6 hPa Calm     77 % 0 mm
07:37 5.7 °C 2.2 °C 1023.6 hPa Calm     78 % 0 mm
07:42 5.7 °C 2.3 °C 1023.6 hPa Calm     79 % 0 mm
07:47 5.8 °C 2.6 °C 1023.9 hPa Calm     80 % 0 mm
07:52 6.1 °C 2.9 °C 1023.9 hPa Calm     80 % 0 mm
07:57 6.8 °C 3.8 °C 1023.9 hPa Calm   1.6 km/h 81 % 0 mm
08:02 7.9 °C 4.8 °C 1023.9 hPa Calm   1.6 km/h 81 % 0 mm
08:07 8.7 °C 4.5 °C 1023.9 hPa Calm   1.6 km/h 75 % 0 mm
08:12 9.6 °C 5.2 °C 1023.9 hPa Calm   1.6 km/h 74 % 0 mm
08:17 10.4 °C 5.8 °C 1023.9 hPa Calm   1.6 km/h 73 % 0 mm
08:22 11.2 °C 5.3 °C 1024.3 hPa Calm   1.6 km/h 67 % 0 mm
08:27 11.7 °C 5.1 °C 1024.3 hPa Calm   3.2 km/h 64 % 0 mm
08:32 12.2 °C 5.6 °C 1024.3 hPa Calm   3.2 km/h 64 % 0 mm
08:37 12.6 °C 5.5 °C 1024.3 hPa SSW 1.6 km/h 3.2 km/h 62 % 0 mm
08:42 13.1 °C 6.2 °C 1024.3 hPa Calm   4.8 km/h 63 % 0 mm
08:47 13.4 °C 5.3 °C 1024.3 hPa SW 3.2 km/h 4.8 km/h 58 % 0 mm
08:52 13.9 °C 6 °C 1024.3 hPa SW 1.6 km/h 4.8 km/h 59 % 0 mm
08:57 14.2 °C 5.3 °C 1024.3 hPa SSW 4.8 km/h 6.4 km/h 55 % 0 mm
09:02 14.7 °C 5.8 °C 1024.3 hPa Calm   6.4 km/h 55 % 0 mm
09:07 15.3 °C 5.8 °C 1024.3 hPa Calm   6.4 km/h 53 % 0 mm
09:12 15.8 °C 4.8 °C 1024.3 hPa Calm   6.4 km/h 48 % 0 mm
09:17 15.7 °C 4.7 °C 1024.3 hPa Calm   4.8 km/h 48 % 0 mm
09:22 15.9 °C 4.9 °C 1024.3 hPa Calm   4.8 km/h 48 % 0 mm
09:27 16.3 °C 4.7 °C 1024.3 hPa Calm   4.8 km/h 46 % 0 mm
09:32 16.4 °C 4.4 °C 1024.3 hPa WSW 3.2 km/h 6.4 km/h 45 % 0 mm
09:37 16.5 °C 4.8 °C 1024.3 hPa WNW 3.2 km/h 6.4 km/h 46 % 0 mm
09:42 16.7 °C 5 °C 1024.3 hPa WSW 3.2 km/h 8 km/h 46 % 0 mm
09:47 17.2 °C 5.5 °C 1024.6 hPa WSW 3.2 km/h 8 km/h 46 % 0 mm
09:52 17.4 °C 4.7 °C 1024.6 hPa West 1.6 km/h 8 km/h 43 % 0 mm
09:57 17.4 °C 5 °C 1024.6 hPa West 1.6 km/h 6.4 km/h 44 % 0 mm
10:02 17.9 °C 5.5 °C 1024.6 hPa Calm   6.4 km/h 44 % 0 mm
10:08 18.8 °C 5.3 °C 1024.6 hPa WSW 4.8 km/h 4.8 km/h 41 % 0 mm
10:13 19.2 °C 5.6 °C 1024.6 hPa SW 1.6 km/h 4.8 km/h 41 % 0 mm
10:18 19.4 °C 4.3 °C 1024.6 hPa WNW 4.8 km/h 6.4 km/h 37 % 0 mm
10:20 19.3 °C 4.6 °C 1024.6 hPa West 1.6 km/h 8 km/h 38 % 0 mm
10:23 19.3 °C 4.6 °C 1024.6 hPa SW 3.2 km/h 8 km/h 38 % 0 mm
10:25 19.3 °C 4.6 °C 1024.6 hPa NW 1.6 km/h 8 km/h 38 % 0 mm
10:30 19.4 °C 4.3 °C 1024.6 hPa NNW 4.8 km/h 9.7 km/h 37 % 0 mm
10:36 19.7 °C 5 °C 1024.6 hPa WSW 3.2 km/h 11.3 km/h 38 % 0 mm
10:41 19.9 °C 4.4 °C 1024.6 hPa South 1.6 km/h 11.3 km/h 36 % 0 mm
10:46 20.3 °C 5.9 °C 1024.3 hPa SSW 3.2 km/h 11.3 km/h 39 % 0 mm
10:56 21.2 °C 5.1 °C 1024.3 hPa SW 3.2 km/h 6.4 km/h 35 % 0 mm
11:01 21.2 °C 4.3 °C 1024.3 hPa Calm   8 km/h 33 % 0 mm
11:07 21.4 °C 5.7 °C 1024.3 hPa SSW 4.8 km/h 8 km/h 36 % 0 mm
11:12 21.9 °C 5.3 °C 1024.3 hPa WSW 3.2 km/h 8 km/h 34 % 0 mm
11:17 22.2 °C 4.3 °C 1024.3 hPa West 3.2 km/h 8 km/h 31 % 0 mm
11:22 22.2 °C 5.6 °C 1023.9 hPa West 4.8 km/h 8 km/h 34 % 0 mm
11:27 22.3 °C 5.7 °C 1023.9 hPa SSW 1.6 km/h 12.9 km/h 34 % 0 mm
11:32 22.6 °C 4.1 °C 1023.9 hPa WSW 3.2 km/h 12.9 km/h 30 % 0 mm
11:37 23.1 °C 5.9 °C 1023.9 hPa SW 4.8 km/h 12.9 km/h 33 % 0 mm
11:42 23.4 °C 5.3 °C 1023.6 hPa SW 8 km/h 9.7 km/h 31 % 0 mm
11:47 23.6 °C 4.5 °C 1023.6 hPa South 3.2 km/h 12.9 km/h 29 % 0 mm
11:52 23.6 °C 5 °C 1023.2 hPa SSW 8 km/h 12.9 km/h 30 % 0 mm
11:57 23.7 °C 4.1 °C 1023.2 hPa SW 6.4 km/h 12.9 km/h 28 % 0 mm
12:03 23.6 °C 3.5 °C 1023.2 hPa West 3.2 km/h 12.9 km/h 27 % 0 mm
12:08 23.5 °C 2.9 °C 1022.9 hPa NW 1.6 km/h 12.9 km/h 26 % 0 mm
12:13 23.9 °C 3.8 °C 1022.9 hPa South 8 km/h 12.9 km/h 27 % 0 mm
12:15 24.1 °C 3.9 °C 1022.9 hPa WNW 4.8 km/h 12.9 km/h 27 % 0 mm
12:20 24.4 °C 3.1 °C 1022.6 hPa West 3.2 km/h 9.7 km/h 25 % 0 mm
12:25 24.5 °C 2 °C 1022.6 hPa WSW 4.8 km/h 12.9 km/h 23 % 0 mm
12:30 24.5 °C 2 °C 1022.6 hPa SSW 9.7 km/h 12.9 km/h 23 % 0 mm
12:35 24.7 °C 2.2 °C 1022.2 hPa SSW 4.8 km/h 14.5 km/h 23 % 0 mm
12:40 24.7 °C 2.8 °C 1022.2 hPa WSW 9.7 km/h 17.7 km/h 24 % 0 mm
12:45 24.7 °C 0.9 °C 1022.2 hPa SW 8 km/h 19.3 km/h 21 % 0 mm
12:50 24.8 °C 0.3 °C 1022.2 hPa WSW 3.2 km/h 19.3 km/h 20 % 0 mm
12:55 24.9 °C 1.7 °C 1021.9 hPa South 9.7 km/h 19.3 km/h 22 % 0 mm
13:00 24.8 °C 1.6 °C 1021.9 hPa SW 6.4 km/h 19.3 km/h 22 % 0 mm
13:05 24.8 °C 2.3 °C 1021.9 hPa South 3.2 km/h 19.3 km/h 23 % 0 mm
13:10 25.1 °C 2.5 °C 1021.6 hPa West 3.2 km/h 19.3 km/h 23 % 0 mm
13:15 25.4 °C 2.8 °C 1021.6 hPa SW 12.9 km/h 16.1 km/h 23 % 0 mm
13:20 25.4 °C 2.1 °C 1021.6 hPa WSW 3.2 km/h 14.5 km/h 22 % 0 mm
13:25 25.4 °C 1.5 °C 1021.6 hPa SW 1.6 km/h 14.5 km/h 21 % 0 mm
13:30 25.5 °C 2.8 °C 1021.6 hPa SSW 4.8 km/h 16.1 km/h 23 % 0 mm
13:35 25.4 °C 3.4 °C 1021.2 hPa SSW 1.6 km/h 16.1 km/h 24 % 0 mm
13:41 25.5 °C 2.8 °C 1021.2 hPa SSW 9.7 km/h 16.1 km/h 23 % 0 mm
13:46 25.2 °C 3.8 °C 1021.2 hPa South 8 km/h 19.3 km/h 25 % 0 mm
13:51 25 °C 2.4 °C 1021.2 hPa SSW 3.2 km/h 19.3 km/h 23 % 0 mm
13:56 25.2 °C 2.6 °C 1020.9 hPa North 1.6 km/h 19.3 km/h 23 % 0 mm
14:01 25.3 °C 2.7 °C 1020.9 hPa SSW 11.3 km/h 19.3 km/h 23 % 0 mm
14:06 25.3 °C 2.1 °C 1020.9 hPa West 3.2 km/h 14.5 km/h 22 % 0 mm
14:11 25.3 °C 1.4 °C 1020.9 hPa SSW 9.7 km/h 14.5 km/h 21 % 0 mm
14:16 25.3 °C 0.7 °C 1020.9 hPa West 6.4 km/h 14.5 km/h 20 % 0 mm
14:21 25.4 °C 0.8 °C 1020.5 hPa SW 11.3 km/h 14.5 km/h 20 % 0 mm
14:26 25.3 °C 0.7 °C 1020.5 hPa West 4.8 km/h 20.9 km/h 20 % 0 mm
14:31 25.4 °C 2.1 °C 1020.5 hPa SSE 14.5 km/h 20.9 km/h 22 % 0 mm
14:36 25.6 °C 1 °C 1020.5 hPa SSW 4.8 km/h 20.9 km/h 20 % 0 mm
14:41 25.3 °C 2.1 °C 1020.5 hPa SW 6.4 km/h 22.5 km/h 22 % 0 mm
14:46 25.2 °C 1.3 °C 1020.5 hPa SSE 1.6 km/h 22.5 km/h 21 % 0 mm
14:51 25.3 °C 2.1 °C 1020.5 hPa NNW 8 km/h 22.5 km/h 22 % 0 mm
14:56 25.3 °C 2.1 °C 1020.5 hPa SSW 6.4 km/h 17.7 km/h 22 % 0 mm
15:01 25.4 °C 1.5 °C 1020.2 hPa South 11.3 km/h 17.7 km/h 21 % 0 mm
15:06 25.3 °C 2.1 °C 1020.2 hPa SSW 6.4 km/h 19.3 km/h 22 % 0 mm
15:11 25.5 °C 0.9 °C 1020.2 hPa SSW 3.2 km/h 19.3 km/h 20 % 0 mm
15:16 25.4 °C 1.5 °C 1020.2 hPa SW 6.4 km/h 19.3 km/h 21 % 0 mm
15:21 25.4 °C 2.1 °C 1020.2 hPa SSE 3.2 km/h 19.3 km/h 22 % 0 mm
15:26 25.4 °C 0.8 °C 1020.2 hPa SSW 12.9 km/h 19.3 km/h 20 % 0 mm
15:31 25.3 °C 0.7 °C 1020.2 hPa SSW 11.3 km/h 17.7 km/h 20 % 0 mm
15:37 25.1 °C 1.2 °C 1020.2 hPa NW 6.4 km/h 19.3 km/h 21 % 0 mm
15:42 25.3 °C 1.4 °C 1020.2 hPa SSW 6.4 km/h 19.3 km/h 21 % 0 mm
15:47 25.4 °C 0.8 °C 1020.2 hPa SW 4.8 km/h 19.3 km/h 20 % 0 mm
15:52 25.4 °C 1.5 °C 1019.9 hPa SW 8 km/h 12.9 km/h 21 % 0 mm
15:57 25.3 °C 0.7 °C 1019.9 hPa South 6.4 km/h 19.3 km/h 20 % 0 mm
16:02 25.3 °C 1.4 °C 1019.9 hPa WNW 8 km/h 19.3 km/h 21 % 0 mm
16:07 25.4 °C 1.5 °C 1019.9 hPa SSW 6.4 km/h 19.3 km/h 21 % 0 mm
16:12 25.3 °C 2.1 °C 1019.9 hPa SSW 6.4 km/h 12.9 km/h 22 % 0 mm
16:17 25.4 °C 1.5 °C 1020.2 hPa SW 9.7 km/h 11.3 km/h 21 % 0 mm
16:22 25.1 °C 1.2 °C 1019.9 hPa South 3.2 km/h 17.7 km/h 21 % 0 mm
16:27 25 °C 1.8 °C 1019.9 hPa SW 1.6 km/h 17.7 km/h 22 % 0 mm
16:32 24.8 °C 1.6 °C 1020.2 hPa South 6.4 km/h 17.7 km/h 22 % 0 mm
16:37 24.8 °C 1 °C 1020.2 hPa SSW 4.8 km/h 16.1 km/h 21 % 0 mm
16:42 24.7 °C 1.6 °C 1020.2 hPa SSW 11.3 km/h 16.1 km/h 22 % 0 mm
16:47 24.6 °C 1.5 °C 1020.2 hPa SW 3.2 km/h 16.1 km/h 22 % 0 mm
16:52 24.4 °C 1.9 °C 1020.2 hPa SW 6.4 km/h 16.1 km/h 23 % 0 mm
16:57 24.2 °C 2.4 °C 1020.2 hPa SSW 8 km/h 16.1 km/h 24 % 0 mm
17:02 24.1 °C 1.7 °C 1020.2 hPa SSW 4.8 km/h 16.1 km/h 23 % 0 mm
17:07 23.9 °C 1.5 °C 1020.2 hPa SSW 4.8 km/h 16.1 km/h 23 % 0 mm
17:12 23.8 °C 1.4 °C 1020.2 hPa SSW 4.8 km/h 14.5 km/h 23 % 0 mm
17:17 23.7 °C 1.3 °C 1020.2 hPa SW 1.6 km/h 14.5 km/h 23 % 0 mm
17:22 23.4 °C 1.7 °C 1020.2 hPa West 8 km/h 11.3 km/h 24 % 0 mm
17:27 23.2 °C 1.5 °C 1020.2 hPa SW 1.6 km/h 11.3 km/h 24 % 0 mm
17:32 22.9 °C 1.8 °C 1020.2 hPa SSW 8 km/h 11.3 km/h 25 % 0 mm
17:37 22.7 °C 1.7 °C 1020.2 hPa Calm   11.3 km/h 25 % 0 mm
17:42 22.4 °C 1.4 °C 1019.9 hPa SSE 4.8 km/h 11.3 km/h 25 % 0 mm
17:47 22.2 °C 1.8 °C 1019.9 hPa SW 3.2 km/h 11.3 km/h 26 % 0 mm
17:52 21.9 °C 1.5 °C 1019.9 hPa SSW 1.6 km/h 8 km/h 26 % 0 mm
17:57 21.7 °C 1.4 °C 1020.2 hPa South 1.6 km/h 8 km/h 26 % 0 mm
18:02 21.4 °C 1.6 °C 1019.9 hPa SSW 1.6 km/h 8 km/h 27 % 0 mm
18:07 21.2 °C 1.5 °C 1019.9 hPa SSW 3.2 km/h 6.4 km/h 27 % 0 mm
18:12 21.1 °C 1.9 °C 1020.2 hPa South 1.6 km/h 6.4 km/h 28 % 0 mm
18:17 20.8 °C 1.6 °C 1019.9 hPa Calm   4.8 km/h 28 % 0 mm
18:22 20.4 °C 1.8 °C 1019.9 hPa SSE 1.6 km/h 4.8 km/h 29 % 0 mm
18:27 20.2 °C 2.1 °C 1019.9 hPa Calm   1.6 km/h 30 % 0 mm
18:32 19.8 °C 1.7 °C 1019.9 hPa Calm   1.6 km/h 30 % 0 mm
18:37 19.4 °C 1.8 °C 1019.9 hPa Calm   1.6 km/h 31 % 0 mm
18:42 19.1 °C 2 °C 1019.9 hPa Calm   1.6 km/h 32 % 0 mm
18:47 18.6 °C 2 °C 1019.9 hPa Calm     33 % 0 mm
18:52 18.1 °C 2 °C 1019.9 hPa Calm     34 % 0 mm
18:57 17.7 °C 2.4 °C 1019.9 hPa Calm     36 % 0 mm
19:02 17.3 °C 2.5 °C 1019.9 hPa Calm     37 % 0 mm
19:07 17 °C 2.6 °C 1019.9 hPa Calm     38 % 0 mm
19:12 16.7 °C 2.7 °C 1019.9 hPa Calm     39 % 0 mm
19:17 16.3 °C 2.7 °C 1019.9 hPa Calm     40 % 0 mm
19:22 16.1 °C 2.8 °C 1019.9 hPa Calm     41 % 0 mm
19:27 15.7 °C 2.8 °C 1019.9 hPa Calm     42 % 0 mm
19:32 15.2 °C 2.7 °C 1019.9 hPa Calm     43 % 0 mm
19:37 14.9 °C 3.1 °C 1020.2 hPa SSW 1.6 km/h 1.6 km/h 45 % 0 mm
19:42 15.8 °C 3.2 °C 1020.2 hPa SSW 8 km/h 12.9 km/h 43 % 0 mm
19:47 16.9 °C 3.6 °C 1020.2 hPa South 1.6 km/h 12.9 km/h 41 % 0 mm
19:52 17.3 °C 3.2 °C 1020.2 hPa SSW 3.2 km/h 12.9 km/h 39 % 0 mm
19:57 17.8 °C 3.3 °C 1020.2 hPa South 3.2 km/h 12.9 km/h 38 % 0 mm
20:02 17.8 °C 3.3 °C 1020.2 hPa SSE 4.8 km/h 9.7 km/h 38 % 0 mm
20:07 17.7 °C 3.2 °C 1020.2 hPa South 6.4 km/h 9.7 km/h 38 % 0 mm
20:12 17.8 °C 3.3 °C 1020.2 hPa SSW 4.8 km/h 9.7 km/h 38 % 0 mm
20:17 17.9 °C 3.4 °C 1020.2 hPa SSW 6.4 km/h 11.3 km/h 38 % 0 mm
20:22 17.9 °C 3.4 °C 1020.5 hPa SW 4.8 km/h 12.9 km/h 38 % 0 mm
20:27 17.9 °C 3.4 °C 1020.5 hPa South 3.2 km/h 12.9 km/h 38 % 0 mm
20:32 17.8 °C 3.3 °C 1020.5 hPa SSE 3.2 km/h 12.9 km/h 38 % 0 mm
20:37 17.7 °C 3.2 °C 1020.5 hPa SSE 6.4 km/h 12.9 km/h 38 % 0 mm
20:42 17.7 °C 3.6 °C 1020.5 hPa SSW 8 km/h 14.5 km/h 39 % 0 mm
20:47 17.6 °C 3.5 °C 1020.5 hPa SSW 9.7 km/h 14.5 km/h 39 % 0 mm
20:52 17.5 °C 3.4 °C 1020.5 hPa South 6.4 km/h 14.5 km/h 39 % 0 mm
20:57 17.3 °C 3.6 °C 1020.5 hPa South 6.4 km/h 12.9 km/h 40 % 0 mm
21:02 17.2 °C 3.5 °C 1020.5 hPa SW 8 km/h 12.9 km/h 40 % 0 mm
21:07 17.2 °C 3.5 °C 1020.5 hPa South 4.8 km/h 14.5 km/h 40 % 0 mm
21:12 17.1 °C 3.4 °C 1020.5 hPa SSW 11.3 km/h 14.5 km/h 40 % 0 mm
21:17 16.9 °C 3.2 °C 1020.5 hPa South 4.8 km/h 16.1 km/h 40 % 0 mm
21:22 16.8 °C 3.1 °C 1020.5 hPa SSW 1.6 km/h 16.1 km/h 40 % 0 mm
21:27 16.7 °C 3 °C 1020.5 hPa South 4.8 km/h 16.1 km/h 40 % 0 mm
21:32 16.6 °C 3.3 °C 1020.5 hPa South 4.8 km/h 12.9 km/h 41 % 0 mm
21:37 16.4 °C 3.1 °C 1020.5 hPa SSW 6.4 km/h 14.5 km/h 41 % 0 mm
21:42 16.4 °C 3.1 °C 1020.5 hPa SSW 4.8 km/h 14.5 km/h 41 % 0 mm
21:48 16.2 °C 3.3 °C 1020.2 hPa SSE 8 km/h 14.5 km/h 42 % 0 mm
21:53 16.2 °C 3.3 °C 1020.5 hPa South 4.8 km/h 11.3 km/h 42 % 0 mm
21:58 16 °C 3.4 °C 1020.5 hPa SW 8 km/h 11.3 km/h 43 % 0 mm
22:03 15.9 °C 3.3 °C 1020.5 hPa SSE 3.2 km/h 11.3 km/h 43 % 0 mm
22:08 15.8 °C 3.6 °C 1020.5 hPa SE 8 km/h 11.3 km/h 44 % 0 mm
22:13 15.8 °C 3.6 °C 1020.5 hPa SE 8 km/h 11.3 km/h 44 % 0 mm
22:18 15.7 °C 3.8 °C 1020.2 hPa SSW 4.8 km/h 11.3 km/h 45 % 0 mm
22:23 15.6 °C 4 °C 1020.2 hPa SSW 4.8 km/h 11.3 km/h 46 % 0 mm
22:28 15.5 °C 3.9 °C 1020.2 hPa South 4.8 km/h 14.5 km/h 46 % 0 mm
22:33 15.4 °C 4.4 °C 1020.2 hPa SSW 8 km/h 14.5 km/h 48 % 0 mm
22:38 15.3 °C 4.6 °C 1020.2 hPa SE 9.7 km/h 14.5 km/h 49 % 0 mm
22:43 15.3 °C 4.9 °C 1020.2 hPa SW 3.2 km/h 14.5 km/h 50 % 0 mm
22:48 15.2 °C 5.4 °C 1020.2 hPa South 3.2 km/h 14.5 km/h 52 % 0 mm
22:53 15.2 °C 5.7 °C 1020.2 hPa South 3.2 km/h 14.5 km/h 53 % 0 mm
22:58 15.2 °C 6 °C 1020.2 hPa SSW 4.8 km/h 11.3 km/h 54 % 0 mm
23:03 15.1 °C 6.4 °C 1020.2 hPa South 4.8 km/h 12.9 km/h 56 % 0 mm
23:08 15 °C 6.3 °C 1019.9 hPa South 4.8 km/h 12.9 km/h 56 % 0 mm
23:13 14.9 °C 6.5 °C 1019.9 hPa South 4.8 km/h 12.9 km/h 57 % 0 mm
23:18 14.9 °C 6.7 °C 1019.9 hPa SSW 4.8 km/h 11.3 km/h 58 % 0 mm
23:23 14.8 °C 6.9 °C 1019.9 hPa South 6.4 km/h 9.7 km/h 59 % 0 mm
23:29 14.8 °C 7.1 °C 1019.9 hPa SE 6.4 km/h 9.7 km/h 60 % 0 mm
23:34 14.6 °C 6.9 °C 1019.9 hPa SSE 8 km/h 9.7 km/h 60 % 0 mm
23:39 14.5 °C 7.1 °C 1019.9 hPa SSW 4.8 km/h 9.7 km/h 61 % 0 mm
23:44 14.4 °C 7.2 °C 1019.9 hPa SW 8 km/h 8 km/h 62 % 0 mm
23:49 14.4 °C 7.4 °C 1019.9 hPa South 6.4 km/h 9.7 km/h 63 % 0 mm
23:54 14.4 °C 7.7 °C 1019.9 hPa SSW 3.2 km/h 9.7 km/h 64 % 0 mm
23:59 14.3 °C 7.8 °C 1019.5 hPa South 6.4 km/h 9.7 km/h 65 % 0 mm
Spring, Texas: Villages of Bridgestone
Compliments of Weather Underground - 2.75 mb

Script developed by  Jim McMurry - jmcmurry@mwt.net Adapted for the template by  Wim van der Kuil - Leuven-Template.eu

You find our weather info also at:

UK Metoffice

WeatherCloud

Weather Underground

Mid-South Weather Network

AWEKAS

Citizen Weather Observer Program (CWOP)

HAMweather, WeatherForYou, PWS Weather

Equipment we use:

Weather-station
Davis Vantage Vue

Weather-program
Meteohub

Weather-server
Debian 7.9 x86 (Guest)

Provider
DreamHost

Davis Vantage Vue

Meteohub

Debian 7.9 x86 (Guest)

DreamHost